sensor_id;sensor_type;location;lat;lon;timestamp;temperature;humidity
13074;DHT22;6603;47.066;15.396;2022-11-20T00:00:26;2.10;99.90
13074;DHT22;6603;47.066;15.396;2022-11-20T00:02:52;1.90;99.90
13074;DHT22;6603;47.066;15.396;2022-11-20T00:05:18;2.30;99.90
13074;DHT22;6603;47.066;15.396;2022-11-20T00:07:44;2.40;99.90
13074;DHT22;6603;47.066;15.396;2022-11-20T00:10:10;2.50;99.90
13074;DHT22;6603;47.066;15.396;2022-11-20T00:12:36;2.40;99.90
13074;DHT22;6603;47.066;15.396;2022-11-20T00:15:02;2.30;99.90
13074;DHT22;6603;47.066;15.396;2022-11-20T00:17:28;2.30;99.90
13074;DHT22;6603;47.066;15.396;2022-11-20T00:19:54;2.30;99.90
13074;DHT22;6603;47.066;15.396;2022-11-20T00:22:20;2.20;99.90
13074;DHT22;6603;47.066;15.396;2022-11-20T00:24:46;2.20;99.90
13074;DHT22;6603;47.066;15.396;2022-11-20T00:27:12;2.10;99.90
13074;DHT22;6603;47.066;15.396;2022-11-20T00:29:39;2.00;99.90
13074;DHT22;6603;47.066;15.396;2022-11-20T00:32:05;2.00;99.90
13074;DHT22;6603;47.066;15.396;2022-11-20T00:34:31;2.20;99.90
13074;DHT22;6603;47.066;15.396;2022-11-20T00:36:56;2.20;99.90
13074;DHT22;6603;47.066;15.396;2022-11-20T00:39:22;2.40;99.90
13074;DHT22;6603;47.066;15.396;2022-11-20T00:41:48;2.40;99.90
13074;DHT22;6603;47.066;15.396;2022-11-20T00:44:14;2.50;99.90
13074;DHT22;6603;47.066;15.396;2022-11-20T00:46:40;2.40;99.90
13074;DHT22;6603;47.066;15.396;2022-11-20T00:49:06;2.40;99.90
13074;DHT22;6603;47.066;15.396;2022-11-20T00:51:32;2.30;99.90
13074;DHT22;6603;47.066;15.396;2022-11-20T00:53:58;2.20;99.90
13074;DHT22;6603;47.066;15.396;2022-11-20T00:56:25;2.10;99.90
13074;DHT22;6603;47.066;15.396;2022-11-20T00:58:52;2.10;99.90
13074;DHT22;6603;47.066;15.396;2022-11-20T01:01:20;2.10;99.90
13074;DHT22;6603;47.066;15.396;2022-11-20T01:03:48;2.10;99.90
13074;DHT22;6603;47.066;15.396;2022-11-20T01:06:20;2.40;99.90
13074;DHT22;6603;47.066;15.396;2022-11-20T01:08:48;2.40;99.90
13074;DHT22;6603;47.066;15.396;2022-11-20T01:11:20;2.30;99.90
13074;DHT22;6603;47.066;15.396;2022-11-20T01:13:48;2.40;99.90
13074;DHT22;6603;47.066;15.396;2022-11-20T01:16:27;2.30;99.90
13074;DHT22;6603;47.066;15.396;2022-11-20T01:18:56;2.20;99.90
13074;DHT22;6603;47.066;15.396;2022-11-20T01:21:31;2.10;99.90
13074;DHT22;6603;47.066;15.396;2022-11-20T01:23:58;2.00;99.90
13074;DHT22;6603;47.066;15.396;2022-11-20T01:26:32;2.00;99.90
13074;DHT22;6603;47.066;15.396;2022-11-20T01:28:59;2.00;99.90
13074;DHT22;6603;47.066;15.396;2022-11-20T01:31:28;2.00;99.90
13074;DHT22;6603;47.066;15.396;2022-11-20T01:33:56;2.10;99.90
13074;DHT22;6603;47.066;15.396;2022-11-20T01:36:26;2.00;99.90
13074;DHT22;6603;47.066;15.396;2022-11-20T01:38:54;2.00;99.90
13074;DHT22;6603;47.066;15.396;2022-11-20T01:41:20;2.00;99.90
13074;DHT22;6603;47.066;15.396;2022-11-20T01:44:06;2.10;99.90
13074;DHT22;6603;47.066;15.396;2022-11-20T01:46:38;2.20;99.90
13074;DHT22;6603;47.066;15.396;2022-11-20T01:49:34;2.40;99.90
13074;DHT22;6603;47.066;15.396;2022-11-20T01:52:12;2.10;99.90
13074;DHT22;6603;47.066;15.396;2022-11-20T01:54:55;2.00;99.90
13074;DHT22;6603;47.066;15.396;2022-11-20T01:57:23;2.00;99.90
13074;DHT22;6603;47.066;15.396;2022-11-20T01:59:59;2.00;99.90
13074;DHT22;6603;47.066;15.396;2022-11-20T02:02:26;2.00;99.90
13074;DHT22;6603;47.066;15.396;2022-11-20T02:04:54;2.10;99.90
13074;DHT22;6603;47.066;15.396;2022-11-20T02:07:23;2.20;99.90
13074;DHT22;6603;47.066;15.396;2022-11-20T02:09:49;2.30;99.90
13074;DHT22;6603;47.066;15.396;2022-11-20T02:12:16;2.40;99.90
13074;DHT22;6603;47.066;15.396;2022-11-20T02:15:01;2.50;99.90
13074;DHT22;6603;47.066;15.396;2022-11-20T02:17:27;2.50;99.90
13074;DHT22;6603;47.066;15.396;2022-11-20T02:19:54;2.30;99.90
13074;DHT22;6603;47.066;15.396;2022-11-20T02:22:33;2.40;99.90
13074;DHT22;6603;47.066;15.396;2022-11-20T02:25:02;2.40;99.90
13074;DHT22;6603;47.066;15.396;2022-11-20T02:27:29;2.20;99.90
13074;DHT22;6603;47.066;15.396;2022-11-20T02:30:04;2.10;99.90
13074;DHT22;6603;47.066;15.396;2022-11-20T02:32:35;2.00;99.90
13074;DHT22;6603;47.066;15.396;2022-11-20T02:37:50;2.00;99.90
13074;DHT22;6603;47.066;15.396;2022-11-20T02:40:16;2.00;99.90
13074;DHT22;6603;47.066;15.396;2022-11-20T02:42:42;2.20;99.90
13074;DHT22;6603;47.066;15.396;2022-11-20T02:45:08;2.20;99.90
13074;DHT22;6603;47.066;15.396;2022-11-20T02:47:34;2.00;99.90
13074;DHT22;6603;47.066;15.396;2022-11-20T02:50:01;2.10;99.90
13074;DHT22;6603;47.066;15.396;2022-11-20T02:52:27;2.00;99.90
13074;DHT22;6603;47.066;15.396;2022-11-20T02:54:53;2.30;99.90
13074;DHT22;6603;47.066;15.396;2022-11-20T02:57:19;2.40;99.90
13074;DHT22;6603;47.066;15.396;2022-11-20T02:59:44;2.40;99.90
13074;DHT22;6603;47.066;15.396;2022-11-20T03:02:10;2.40;99.90
13074;DHT22;6603;47.066;15.396;2022-11-20T03:04:36;2.20;99.90
13074;DHT22;6603;47.066;15.396;2022-11-20T03:07:03;2.20;99.90
13074;DHT22;6603;47.066;15.396;2022-11-20T03:09:29;2.30;99.90
13074;DHT22;6603;47.066;15.396;2022-11-20T03:11:55;2.20;99.90
13074;DHT22;6603;47.066;15.396;2022-11-20T03:14:21;2.10;99.90
13074;DHT22;6603;47.066;15.396;2022-11-20T03:16:47;2.20;99.90
13074;DHT22;6603;47.066;15.396;2022-11-20T03:19:13;2.10;99.90
13074;DHT22;6603;47.066;15.396;2022-11-20T03:21:39;2.30;99.90
13074;DHT22;6603;47.066;15.396;2022-11-20T03:24:06;2.50;99.90
13074;DHT22;6603;47.066;15.396;2022-11-20T03:26:32;2.40;99.90
13074;DHT22;6603;47.066;15.396;2022-11-20T03:29:00;2.50;99.90
13074;DHT22;6603;47.066;15.396;2022-11-20T03:31:35;2.60;99.90
13074;DHT22;6603;47.066;15.396;2022-11-20T03:34:02;2.60;99.90
13074;DHT22;6603;47.066;15.396;2022-11-20T04:35:35;2.20;99.90
13074;DHT22;6603;47.066;15.396;2022-11-20T04:38:02;2.20;99.90
13074;DHT22;6603;47.066;15.396;2022-11-20T04:40:29;2.40;99.90
13074;DHT22;6603;47.066;15.396;2022-11-20T04:42:55;2.30;99.90
13074;DHT22;6603;47.066;15.396;2022-11-20T04:45:24;2.30;99.90
13074;DHT22;6603;47.066;15.396;2022-11-20T04:47:50;2.20;99.90
13074;DHT22;6603;47.066;15.396;2022-11-20T04:50:16;2.30;99.90
13074;DHT22;6603;47.066;15.396;2022-11-20T04:52:42;2.30;99.90
13074;DHT22;6603;47.066;15.396;2022-11-20T04:55:08;2.20;99.90
13074;DHT22;6603;47.066;15.396;2022-11-20T04:57:34;2.30;99.90
13074;DHT22;6603;47.066;15.396;2022-11-20T05:00:00;2.20;99.90
13074;DHT22;6603;47.066;15.396;2022-11-20T05:02:26;2.20;99.90
13074;DHT22;6603;47.066;15.396;2022-11-20T05:04:52;2.30;99.90
13074;DHT22;6603;47.066;15.396;2022-11-20T05:07:18;2.30;99.90
13074;DHT22;6603;47.066;15.396;2022-11-20T05:09:44;2.40;99.90
13074;DHT22;6603;47.066;15.396;2022-11-20T05:12:10;2.50;99.90
13074;DHT22;6603;47.066;15.396;2022-11-20T05:14:36;2.40;99.90
13074;DHT22;6603;47.066;15.396;2022-11-20T05:17:02;2.30;99.90
13074;DHT22;6603;47.066;15.396;2022-11-20T05:19:28;2.30;99.90
13074;DHT22;6603;47.066;15.396;2022-11-20T05:21:54;2.20;99.90
13074;DHT22;6603;47.066;15.396;2022-11-20T05:24:20;2.30;99.90
13074;DHT22;6603;47.066;15.396;2022-11-20T05:26:46;2.20;99.90
13074;DHT22;6603;47.066;15.396;2022-11-20T05:29:12;2.40;99.90
13074;DHT22;6603;47.066;15.396;2022-11-20T05:31:40;2.40;99.90
13074;DHT22;6603;47.066;15.396;2022-11-20T05:34:07;2.50;99.90
13074;DHT22;6603;47.066;15.396;2022-11-20T05:36:33;2.50;99.90
13074;DHT22;6603;47.066;15.396;2022-11-20T05:38:59;2.50;99.90
13074;DHT22;6603;47.066;15.396;2022-11-20T05:41:25;2.50;99.90
13074;DHT22;6603;47.066;15.396;2022-11-20T05:43:51;2.50;99.90
13074;DHT22;6603;47.066;15.396;2022-11-20T05:46:19;2.30;99.90
13074;DHT22;6603;47.066;15.396;2022-11-20T05:48:46;2.30;99.90
13074;DHT22;6603;47.066;15.396;2022-11-20T05:51:16;2.30;99.90
13074;DHT22;6603;47.066;15.396;2022-11-20T05:53:43;2.30;99.90
13074;DHT22;6603;47.066;15.396;2022-11-20T05:56:12;2.30;99.90
13074;DHT22;6603;47.066;15.396;2022-11-20T05:58:39;2.30;99.90
13074;DHT22;6603;47.066;15.396;2022-11-20T06:01:34;2.50;99.90
13074;DHT22;6603;47.066;15.396;2022-11-20T06:04:02;2.40;99.90
13074;DHT22;6603;47.066;15.396;2022-11-20T06:06:28;2.20;99.90
13074;DHT22;6603;47.066;15.396;2022-11-20T06:08:54;2.10;99.90
13074;DHT22;6603;47.066;15.396;2022-11-20T06:11:21;2.10;99.90
13074;DHT22;6603;47.066;15.396;2022-11-20T06:13:48;2.30;99.90
13074;DHT22;6603;47.066;15.396;2022-11-20T06:16:16;2.30;99.90
13074;DHT22;6603;47.066;15.396;2022-11-20T06:18:43;2.30;99.90
13074;DHT22;6603;47.066;15.396;2022-11-20T06:21:15;2.30;99.90
13074;DHT22;6603;47.066;15.396;2022-11-20T06:23:42;2.20;99.90
13074;DHT22;6603;47.066;15.396;2022-11-20T06:26:16;2.30;99.90
13074;DHT22;6603;47.066;15.396;2022-11-20T06:28:43;2.10;99.90
13074;DHT22;6603;47.066;15.396;2022-11-20T06:31:12;2.30;99.90
13074;DHT22;6603;47.066;15.396;2022-11-20T06:33:39;2.60;99.90
13074;DHT22;6603;47.066;15.396;2022-11-20T06:36:05;2.40;99.90
13074;DHT22;6603;47.066;15.396;2022-11-20T06:38:31;2.60;99.90
13074;DHT22;6603;47.066;15.396;2022-11-20T06:40:57;2.40;99.90
13074;DHT22;6603;47.066;15.396;2022-11-20T06:43:24;2.40;99.90
13074;DHT22;6603;47.066;15.396;2022-11-20T06:45:55;2.60;99.90
13074;DHT22;6603;47.066;15.396;2022-11-20T06:48:23;2.40;99.90
13074;DHT22;6603;47.066;15.396;2022-11-20T06:50:49;2.40;99.90
13074;DHT22;6603;47.066;15.396;2022-11-20T06:53:15;2.50;99.90
13074;DHT22;6603;47.066;15.396;2022-11-20T06:55:45;2.50;99.90
13074;DHT22;6603;47.066;15.396;2022-11-20T06:58:15;2.60;99.90
13074;DHT22;6603;47.066;15.396;2022-11-20T07:00:42;2.40;99.90
13074;DHT22;6603;47.066;15.396;2022-11-20T07:03:10;2.40;99.90
13074;DHT22;6603;47.066;15.396;2022-11-20T07:05:36;2.60;99.90
13074;DHT22;6603;47.066;15.396;2022-11-20T07:08:04;2.60;99.90
13074;DHT22;6603;47.066;15.396;2022-11-20T07:10:30;2.70;99.90
13074;DHT22;6603;47.066;15.396;2022-11-20T07:12:56;2.90;99.90
13074;DHT22;6603;47.066;15.396;2022-11-20T07:15:24;2.90;99.90
13074;DHT22;6603;47.066;15.396;2022-11-20T07:17:50;2.90;99.90
13074;DHT22;6603;47.066;15.396;2022-11-20T07:20:16;2.90;99.90
13074;DHT22;6603;47.066;15.396;2022-11-20T07:22:42;2.80;99.90
13074;DHT22;6603;47.066;15.396;2022-11-20T07:25:09;2.90;99.90
13074;DHT22;6603;47.066;15.396;2022-11-20T07:27:35;2.90;99.90
13074;DHT22;6603;47.066;15.396;2022-11-20T07:30:02;2.90;99.90
13074;DHT22;6603;47.066;15.396;2022-11-20T07:32:28;2.90;99.90
13074;DHT22;6603;47.066;15.396;2022-11-20T07:34:53;2.80;99.90
13074;DHT22;6603;47.066;15.396;2022-11-20T07:37:19;3.00;99.90
13074;DHT22;6603;47.066;15.396;2022-11-20T07:39:45;2.90;99.90
13074;DHT22;6603;47.066;15.396;2022-11-20T07:42:11;3.00;99.90
13074;DHT22;6603;47.066;15.396;2022-11-20T07:44:38;3.00;99.90
13074;DHT22;6603;47.066;15.396;2022-11-20T07:47:03;3.00;99.90
13074;DHT22;6603;47.066;15.396;2022-11-20T07:49:29;3.10;99.90
13074;DHT22;6603;47.066;15.396;2022-11-20T07:51:55;3.10;99.90
13074;DHT22;6603;47.066;15.396;2022-11-20T07:54:22;3.20;99.90
13074;DHT22;6603;47.066;15.396;2022-11-20T07:56:48;3.20;99.90
13074;DHT22;6603;47.066;15.396;2022-11-20T07:59:14;3.20;99.90
13074;DHT22;6603;47.066;15.396;2022-11-20T08:01:41;3.30;99.90
13074;DHT22;6603;47.066;15.396;2022-11-20T08:04:08;3.20;99.90
13074;DHT22;6603;47.066;15.396;2022-11-20T08:06:34;3.10;99.90
13074;DHT22;6603;47.066;15.396;2022-11-20T08:09:00;3.20;99.90
13074;DHT22;6603;47.066;15.396;2022-11-20T08:11:26;3.20;99.90
13074;DHT22;6603;47.066;15.396;2022-11-20T08:14:10;3.10;99.90
13074;DHT22;6603;47.066;15.396;2022-11-20T08:16:40;3.30;99.90
13074;DHT22;6603;47.066;15.396;2022-11-20T08:19:06;3.40;99.90
13074;DHT22;6603;47.066;15.396;2022-11-20T08:21:32;3.40;99.90
13074;DHT22;6603;47.066;15.396;2022-11-20T08:23:59;3.30;99.90
13074;DHT22;6603;47.066;15.396;2022-11-20T08:26:25;3.40;99.90
13074;DHT22;6603;47.066;15.396;2022-11-20T08:28:57;3.40;99.90
13074;DHT22;6603;47.066;15.396;2022-11-20T08:31:24;3.50;99.90
13074;DHT22;6603;47.066;15.396;2022-11-20T08:33:51;3.30;99.90
13074;DHT22;6603;47.066;15.396;2022-11-20T08:36:17;3.30;99.90
13074;DHT22;6603;47.066;15.396;2022-11-20T08:38:53;3.30;99.90
13074;DHT22;6603;47.066;15.396;2022-11-20T08:41:20;3.40;99.90
13074;DHT22;6603;47.066;15.396;2022-11-20T08:44:01;3.60;99.90
13074;DHT22;6603;47.066;15.396;2022-11-20T08:46:47;3.60;99.90
13074;DHT22;6603;47.066;15.396;2022-11-20T08:49:14;3.60;99.90
13074;DHT22;6603;47.066;15.396;2022-11-20T08:51:41;3.70;99.90
13074;DHT22;6603;47.066;15.396;2022-11-20T08:54:07;3.80;99.90
13074;DHT22;6603;47.066;15.396;2022-11-20T08:56:33;3.70;99.90
13074;DHT22;6603;47.066;15.396;2022-11-20T08:58:59;3.90;99.90
13074;DHT22;6603;47.066;15.396;2022-11-20T09:01:25;4.00;99.90
13074;DHT22;6603;47.066;15.396;2022-11-20T09:03:51;3.90;99.90
13074;DHT22;6603;47.066;15.396;2022-11-20T09:06:17;3.90;99.90
13074;DHT22;6603;47.066;15.396;2022-11-20T09:08:44;3.80;99.90
13074;DHT22;6603;47.066;15.396;2022-11-20T09:11:10;3.90;99.90
13074;DHT22;6603;47.066;15.396;2022-11-20T09:13:36;3.90;99.90
13074;DHT22;6603;47.066;15.396;2022-11-20T09:16:05;3.80;99.90
13074;DHT22;6603;47.066;15.396;2022-11-20T09:18:32;3.90;99.90
13074;DHT22;6603;47.066;15.396;2022-11-20T09:21:00;3.90;99.90
13074;DHT22;6603;47.066;15.396;2022-11-20T09:23:27;4.10;99.90
13074;DHT22;6603;47.066;15.396;2022-11-20T09:25:56;4.10;99.90
13074;DHT22;6603;47.066;15.396;2022-11-20T09:28:25;4.20;99.90
13074;DHT22;6603;47.066;15.396;2022-11-20T09:30:52;4.30;99.90
13074;DHT22;6603;47.066;15.396;2022-11-20T09:33:18;4.40;99.90
13074;DHT22;6603;47.066;15.396;2022-11-20T09:35:44;4.40;99.90
13074;DHT22;6603;47.066;15.396;2022-11-20T09:38:10;4.30;99.90
13074;DHT22;6603;47.066;15.396;2022-11-20T09:40:40;4.40;99.90
13074;DHT22;6603;47.066;15.396;2022-11-20T09:43:14;4.40;99.90
13074;DHT22;6603;47.066;15.396;2022-11-20T09:46:12;4.40;99.90
13074;DHT22;6603;47.066;15.396;2022-11-20T09:49:13;4.60;99.90
13074;DHT22;6603;47.066;15.396;2022-11-20T09:54:20;4.70;99.90
13074;DHT22;6603;47.066;15.396;2022-11-20T09:56:53;4.60;99.90
13074;DHT22;6603;47.066;15.396;2022-11-20T10:01:55;5.00;99.90
13074;DHT22;6603;47.066;15.396;2022-11-20T10:04:23;5.10;99.90
13074;DHT22;6603;47.066;15.396;2022-11-20T10:09:35;5.20;99.90
13074;DHT22;6603;47.066;15.396;2022-11-20T10:12:09;5.40;99.90
13074;DHT22;6603;47.066;15.396;2022-11-20T10:15:29;5.40;99.90
13074;DHT22;6603;47.066;15.396;2022-11-20T10:26:12;5.50;99.90
13074;DHT22;6603;47.066;15.396;2022-11-20T10:34:03;5.60;99.90
13074;DHT22;6603;47.066;15.396;2022-11-20T10:36:38;5.80;99.90
13074;DHT22;6603;47.066;15.396;2022-11-20T10:39:23;5.70;99.90
13074;DHT22;6603;47.066;15.396;2022-11-20T10:41:52;6.00;99.90
13074;DHT22;6603;47.066;15.396;2022-11-20T10:44:21;6.20;99.90
13074;DHT22;6603;47.066;15.396;2022-11-20T10:47:13;5.80;99.90
13074;DHT22;6603;47.066;15.396;2022-11-20T10:49:42;6.00;99.90
13074;DHT22;6603;47.066;15.396;2022-11-20T10:55:47;6.20;99.90
13074;DHT22;6603;47.066;15.396;2022-11-20T10:58:20;6.20;99.90
13074;DHT22;6603;47.066;15.396;2022-11-20T11:00:51;6.30;99.90
13074;DHT22;6603;47.066;15.396;2022-11-20T11:03:24;6.30;99.90
13074;DHT22;6603;47.066;15.396;2022-11-20T11:05:56;6.70;99.90
13074;DHT22;6603;47.066;15.396;2022-11-20T11:08:28;6.70;99.90
13074;DHT22;6603;47.066;15.396;2022-11-20T11:11:02;6.80;99.90
13074;DHT22;6603;47.066;15.396;2022-11-20T11:13:33;6.80;99.90
13074;DHT22;6603;47.066;15.396;2022-11-20T11:15:59;6.90;99.90
13074;DHT22;6603;47.066;15.396;2022-11-20T11:18:30;7.00;99.90
13074;DHT22;6603;47.066;15.396;2022-11-20T11:20:58;7.10;67.70
13074;DHT22;6603;47.066;15.396;2022-11-20T11:23:40;7.20;99.90
13074;DHT22;6603;47.066;15.396;2022-11-20T11:26:20;6.90;81.60
13074;DHT22;6603;47.066;15.396;2022-11-20T11:29:01;7.10;99.90
13074;DHT22;6603;47.066;15.396;2022-11-20T11:31:32;7.20;99.90
13074;DHT22;6603;47.066;15.396;2022-11-20T11:34:12;7.30;99.90
13074;DHT22;6603;47.066;15.396;2022-11-20T11:36:38;7.20;99.90
13074;DHT22;6603;47.066;15.396;2022-11-20T11:39:11;7.20;99.90
13074;DHT22;6603;47.066;15.396;2022-11-20T11:41:37;7.00;94.20
13074;DHT22;6603;47.066;15.396;2022-11-20T11:44:19;7.10;87.00
13074;DHT22;6603;47.066;15.396;2022-11-20T11:47:08;7.50;99.90
13074;DHT22;6603;47.066;15.396;2022-11-20T11:49:35;7.70;99.60
13074;DHT22;6603;47.066;15.396;2022-11-20T11:52:15;7.70;57.60
13074;DHT22;6603;47.066;15.396;2022-11-20T12:00:20;7.70;1.00
13074;DHT22;6603;47.066;15.396;2022-11-20T12:05:28;7.90;57.30
13074;DHT22;6603;47.066;15.396;2022-11-20T12:08:44;8.00;1.00
13074;DHT22;6603;47.066;15.396;2022-11-20T12:10:57;8.00;1.00
13074;DHT22;6603;47.066;15.396;2022-11-20T12:16:03;8.40;1.00
13074;DHT22;6603;47.066;15.396;2022-11-20T12:18:30;8.40;1.00
13074;DHT22;6603;47.066;15.396;2022-11-20T12:32:31;8.40;1.00
13074;DHT22;6603;47.066;15.396;2022-11-20T12:37:38;8.60;1.00
13074;DHT22;6603;47.066;15.396;2022-11-20T12:43:19;8.80;1.00
13074;DHT22;6603;47.066;15.396;2022-11-20T12:49:46;9.10;1.00
13074;DHT22;6603;47.066;15.396;2022-11-20T13:00:15;9.10;99.90
13074;DHT22;6603;47.066;15.396;2022-11-20T13:03:06;9.20;99.90
13074;DHT22;6603;47.066;15.396;2022-11-20T13:08:23;8.80;1.00
13074;DHT22;6603;47.066;15.396;2022-11-20T13:10:59;8.80;1.00
13074;DHT22;6603;47.066;15.396;2022-11-20T13:13:52;8.80;1.00
13074;DHT22;6603;47.066;15.396;2022-11-20T13:19:02;9.10;1.00
13074;DHT22;6603;47.066;15.396;2022-11-20T13:21:41;9.30;1.00
13074;DHT22;6603;47.066;15.396;2022-11-20T13:29:37;9.10;1.00
13074;DHT22;6603;47.066;15.396;2022-11-20T13:34:39;8.70;1.00
13074;DHT22;6603;47.066;15.396;2022-11-20T13:37:23;8.70;1.00
13074;DHT22;6603;47.066;15.396;2022-11-20T13:39:49;8.60;1.00
13074;DHT22;6603;47.066;15.396;2022-11-20T13:44:53;8.70;1.00
13074;DHT22;6603;47.066;15.396;2022-11-20T13:47:24;8.70;1.00
13074;DHT22;6603;47.066;15.396;2022-11-20T13:49:55;8.50;1.00
13074;DHT22;6603;47.066;15.396;2022-11-20T14:00:24;8.20;1.00
13074;DHT22;6603;47.066;15.396;2022-11-20T14:05:38;8.10;1.00
13074;DHT22;6603;47.066;15.396;2022-11-20T14:08:06;8.00;7.70
13074;DHT22;6603;47.066;15.396;2022-11-20T14:10:37;8.00;1.00
13074;DHT22;6603;47.066;15.396;2022-11-20T14:13:17;7.80;1.00
13074;DHT22;6603;47.066;15.396;2022-11-20T14:15:43;7.60;1.00
13074;DHT22;6603;47.066;15.396;2022-11-20T14:18:15;7.50;29.00
13074;DHT22;6603;47.066;15.396;2022-11-20T14:20:42;7.40;65.10
13074;DHT22;6603;47.066;15.396;2022-11-20T14:23:10;7.30;80.90
13074;DHT22;6603;47.066;15.396;2022-11-20T14:25:36;7.10;99.90
13074;DHT22;6603;47.066;15.396;2022-11-20T14:28:04;7.00;99.90
13074;DHT22;6603;47.066;15.396;2022-11-20T14:30:44;6.90;99.90
13074;DHT22;6603;47.066;15.396;2022-11-20T14:33:12;6.70;99.90
13074;DHT22;6603;47.066;15.396;2022-11-20T14:35:50;6.60;99.90
13074;DHT22;6603;47.066;15.396;2022-11-20T14:38:28;6.40;99.90
13074;DHT22;6603;47.066;15.396;2022-11-20T14:41:05;6.30;99.90
13074;DHT22;6603;47.066;15.396;2022-11-20T14:43:30;6.10;99.90
13074;DHT22;6603;47.066;15.396;2022-11-20T14:46:01;6.00;99.90
13074;DHT22;6603;47.066;15.396;2022-11-20T14:51:04;5.70;99.90
13074;DHT22;6603;47.066;15.396;2022-11-20T14:53:29;5.60;99.90
13074;DHT22;6603;47.066;15.396;2022-11-20T14:55:58;5.60;99.90
13074;DHT22;6603;47.066;15.396;2022-11-20T14:58:29;5.60;99.90
13074;DHT22;6603;47.066;15.396;2022-11-20T15:00:59;5.40;99.90
13074;DHT22;6603;47.066;15.396;2022-11-20T15:03:37;5.40;99.90
13074;DHT22;6603;47.066;15.396;2022-11-20T15:06:04;5.30;99.90
13074;DHT22;6603;47.066;15.396;2022-11-20T15:08:30;5.20;99.90
13074;DHT22;6603;47.066;15.396;2022-11-20T15:10:56;5.10;99.90
13074;DHT22;6603;47.066;15.396;2022-11-20T15:13:37;4.90;99.90
13074;DHT22;6603;47.066;15.396;2022-11-20T15:16:14;4.90;99.90
13074;DHT22;6603;47.066;15.396;2022-11-20T15:18:43;4.90;99.90
13074;DHT22;6603;47.066;15.396;2022-11-20T15:21:14;4.80;99.90
13074;DHT22;6603;47.066;15.396;2022-11-20T15:23:40;4.70;99.90
13074;DHT22;6603;47.066;15.396;2022-11-20T15:26:11;4.70;99.90
13074;DHT22;6603;47.066;15.396;2022-11-20T15:28:45;4.50;99.90
13074;DHT22;6603;47.066;15.396;2022-11-20T15:31:15;4.30;99.90
13074;DHT22;6603;47.066;15.396;2022-11-20T15:33:41;4.20;99.90
13074;DHT22;6603;47.066;15.396;2022-11-20T15:36:08;4.20;99.90
13074;DHT22;6603;47.066;15.396;2022-11-20T15:38:34;4.00;99.90
13074;DHT22;6603;47.066;15.396;2022-11-20T15:41:00;4.00;99.90
13074;DHT22;6603;47.066;15.396;2022-11-20T15:43:26;3.80;99.90
13074;DHT22;6603;47.066;15.396;2022-11-20T15:45:59;3.70;99.90
13074;DHT22;6603;47.066;15.396;2022-11-20T15:48:48;4.00;99.90
13074;DHT22;6603;47.066;15.396;2022-11-20T15:51:37;4.00;99.90
13074;DHT22;6603;47.066;15.396;2022-11-20T15:54:21;3.90;99.90
13074;DHT22;6603;47.066;15.396;2022-11-20T15:56:48;4.00;99.90
13074;DHT22;6603;47.066;15.396;2022-11-20T15:59:14;3.90;99.90
13074;DHT22;6603;47.066;15.396;2022-11-20T16:01:41;3.90;99.90
13074;DHT22;6603;47.066;15.396;2022-11-20T16:04:15;3.80;99.90
13074;DHT22;6603;47.066;15.396;2022-11-20T16:06:41;3.80;99.90
13074;DHT22;6603;47.066;15.396;2022-11-20T16:09:08;3.80;99.90
13074;DHT22;6603;47.066;15.396;2022-11-20T16:11:35;3.90;99.90
13074;DHT22;6603;47.066;15.396;2022-11-20T16:14:04;4.00;99.90
13074;DHT22;6603;47.066;15.396;2022-11-20T16:16:49;3.80;99.90
13074;DHT22;6603;47.066;15.396;2022-11-20T16:19:15;3.70;99.90
13074;DHT22;6603;47.066;15.396;2022-11-20T16:21:42;4.00;99.90
13074;DHT22;6603;47.066;15.396;2022-11-20T16:24:10;4.10;99.90
13074;DHT22;6603;47.066;15.396;2022-11-20T16:26:38;4.10;99.90
13074;DHT22;6603;47.066;15.396;2022-11-20T16:29:05;4.30;99.90
13074;DHT22;6603;47.066;15.396;2022-11-20T16:31:32;4.40;99.90
13074;DHT22;6603;47.066;15.396;2022-11-20T16:34:02;4.40;99.90
13074;DHT22;6603;47.066;15.396;2022-11-20T16:36:28;4.50;99.90
13074;DHT22;6603;47.066;15.396;2022-11-20T16:38:57;4.50;99.90
13074;DHT22;6603;47.066;15.396;2022-11-20T16:41:24;4.60;99.90
13074;DHT22;6603;47.066;15.396;2022-11-20T16:43:53;4.60;99.90
13074;DHT22;6603;47.066;15.396;2022-11-20T16:46:21;4.70;99.90
13074;DHT22;6603;47.066;15.396;2022-11-20T16:49:04;4.70;99.90
13074;DHT22;6603;47.066;15.396;2022-11-20T16:51:33;4.70;99.90
13074;DHT22;6603;47.066;15.396;2022-11-20T16:54:04;4.70;99.90
13074;DHT22;6603;47.066;15.396;2022-11-20T16:56:30;4.70;99.90
13074;DHT22;6603;47.066;15.396;2022-11-20T16:58:58;4.70;99.90
13074;DHT22;6603;47.066;15.396;2022-11-20T17:01:25;4.70;99.90
13074;DHT22;6603;47.066;15.396;2022-11-20T17:04:04;4.60;99.90
13074;DHT22;6603;47.066;15.396;2022-11-20T17:06:32;4.60;99.90
13074;DHT22;6603;47.066;15.396;2022-11-20T17:08:59;4.60;99.90
13074;DHT22;6603;47.066;15.396;2022-11-20T17:11:25;4.60;99.90
13074;DHT22;6603;47.066;15.396;2022-11-20T17:13:53;4.60;99.90
13074;DHT22;6603;47.066;15.396;2022-11-20T17:16:22;4.50;99.90
13074;DHT22;6603;47.066;15.396;2022-11-20T17:18:48;4.60;99.90
13074;DHT22;6603;47.066;15.396;2022-11-20T17:21:17;4.60;99.90
13074;DHT22;6603;47.066;15.396;2022-11-20T17:23:44;4.60;99.90
13074;DHT22;6603;47.066;15.396;2022-11-20T17:28:45;4.60;99.90
13074;DHT22;6603;47.066;15.396;2022-11-20T17:31:14;4.60;99.90
13074;DHT22;6603;47.066;15.396;2022-11-20T17:33:41;4.60;99.90
13074;DHT22;6603;47.066;15.396;2022-11-20T17:36:09;4.60;99.90
13074;DHT22;6603;47.066;15.396;2022-11-20T17:38:35;4.70;99.90
13074;DHT22;6603;47.066;15.396;2022-11-20T17:41:07;4.80;99.90
13074;DHT22;6603;47.066;15.396;2022-11-20T17:43:34;4.80;99.90
13074;DHT22;6603;47.066;15.396;2022-11-20T17:46:07;4.70;99.90
13074;DHT22;6603;47.066;15.396;2022-11-20T17:48:34;4.50;99.90
13074;DHT22;6603;47.066;15.396;2022-11-20T17:51:02;4.50;99.90
13074;DHT22;6603;47.066;15.396;2022-11-20T17:53:33;4.60;99.90
13074;DHT22;6603;47.066;15.396;2022-11-20T17:55:59;4.70;99.90
13074;DHT22;6603;47.066;15.396;2022-11-20T17:59:04;4.60;99.90
13074;DHT22;6603;47.066;15.396;2022-11-20T18:01:31;4.60;99.90
13074;DHT22;6603;47.066;15.396;2022-11-20T18:03:57;4.70;99.90
13074;DHT22;6603;47.066;15.396;2022-11-20T18:06:26;4.70;99.90
13074;DHT22;6603;47.066;15.396;2022-11-20T18:08:53;4.70;99.90
13074;DHT22;6603;47.066;15.396;2022-11-20T18:11:24;4.70;99.90
13074;DHT22;6603;47.066;15.396;2022-11-20T18:13:52;4.70;99.90
13074;DHT22;6603;47.066;15.396;2022-11-20T18:16:49;4.70;99.90
13074;DHT22;6603;47.066;15.396;2022-11-20T18:19:19;4.70;99.90
13074;DHT22;6603;47.066;15.396;2022-11-20T18:21:46;4.70;99.90
13074;DHT22;6603;47.066;15.396;2022-11-20T18:24:11;4.70;99.90
13074;DHT22;6603;47.066;15.396;2022-11-20T18:26:37;4.70;99.90
13074;DHT22;6603;47.066;15.396;2022-11-20T18:29:04;4.70;99.90
13074;DHT22;6603;47.066;15.396;2022-11-20T18:31:30;4.80;99.90
13074;DHT22;6603;47.066;15.396;2022-11-20T18:33:56;4.80;99.90
13074;DHT22;6603;47.066;15.396;2022-11-20T18:36:27;4.80;99.90
13074;DHT22;6603;47.066;15.396;2022-11-20T18:38:55;4.90;99.90
13074;DHT22;6603;47.066;15.396;2022-11-20T18:41:23;4.80;99.90